createdAt,value
2018-06-12T00:00:16.103Z,99786
2018-06-12T00:02:44.952Z,99781
2018-06-12T00:05:13.791Z,99776
2018-06-12T00:07:42.643Z,99776
2018-06-12T00:10:11.499Z,99776
2018-06-12T00:12:40.342Z,99778
2018-06-12T00:15:09.209Z,99777
2018-06-12T00:17:38.058Z,99780
2018-06-12T00:20:06.904Z,99779
2018-06-12T00:22:35.735Z,99791
2018-06-12T00:25:04.567Z,99794
2018-06-12T00:27:34.146Z,99791
2018-06-12T00:30:02.987Z,99788
2018-06-12T00:32:31.838Z,99791
2018-06-12T00:35:00.684Z,99786
2018-06-12T00:37:29.523Z,99788
2018-06-12T00:39:58.367Z,99785
2018-06-12T00:42:27.206Z,99792
2018-06-12T00:44:56.040Z,99780
2018-06-12T00:47:24.889Z,99783
2018-06-12T00:49:54.465Z,99783
2018-06-12T00:52:23.304Z,99788
2018-06-12T00:54:52.149Z,99796
2018-06-12T00:57:20.983Z,99790
2018-06-12T00:59:49.820Z,99784
2018-06-12T01:02:18.667Z,99790
2018-06-12T01:04:47.512Z,99795
2018-06-12T01:07:16.355Z,99797
2018-06-12T01:09:45.191Z,99793
2018-06-12T01:12:14.047Z,99803
2018-06-12T01:14:42.891Z,99797
2018-06-12T01:17:11.727Z,99803
2018-06-12T01:19:40.580Z,99801
2018-06-12T01:22:09.424Z,99800
2018-06-12T01:24:38.259Z,99803
2018-06-12T01:27:07.101Z,99809
2018-06-12T01:29:35.937Z,99809
2018-06-12T01:32:04.933Z,99809
2018-06-12T01:34:33.768Z,99810
2018-06-12T01:37:02.614Z,99807
2018-06-12T01:39:31.458Z,99807
2018-06-12T01:42:00.299Z,99806
2018-06-12T01:44:29.131Z,99801
2018-06-12T01:46:57.976Z,99798
2018-06-12T01:49:26.810Z,99801
2018-06-12T01:51:55.660Z,99797
2018-06-12T01:54:24.499Z,99792
2018-06-12T01:56:54.089Z,99788
2018-06-12T01:59:22.937Z,99785
2018-06-12T02:01:51.803Z,99789
2018-06-12T02:04:21.375Z,99783
2018-06-12T02:06:50.216Z,99785
2018-06-12T02:09:19.052Z,99789
2018-06-12T02:11:47.892Z,99800
2018-06-12T02:14:16.736Z,99790
2018-06-12T02:16:45.583Z,99781
2018-06-12T02:19:14.432Z,99777
2018-06-12T02:21:44.014Z,99776
2018-06-12T02:24:12.854Z,99775
2018-06-12T02:26:41.697Z,99777
2018-06-12T02:29:11.112Z,99772
2018-06-12T02:31:40.698Z,99768
2018-06-12T02:34:09.552Z,99777
2018-06-12T02:36:38.384Z,99775
2018-06-12T02:39:07.232Z,99773
2018-06-12T02:41:36.063Z,99770
2018-06-12T02:44:04.899Z,99766
2018-06-12T02:46:33.752Z,99761
2018-06-12T02:49:02.585Z,99764
2018-06-12T02:51:31.415Z,99761
2018-06-12T02:54:00.265Z,99763
2018-06-12T02:56:29.102Z,99756
2018-06-12T02:58:57.940Z,99760
2018-06-12T03:01:26.787Z,99760
2018-06-12T03:03:56.406Z,99759
2018-06-12T03:06:25.250Z,99770
2018-06-12T03:08:54.095Z,99768
2018-06-12T03:11:22.932Z,99771
2018-06-12T03:13:51.776Z,99770
2018-06-12T03:16:20.618Z,99760
2018-06-12T03:18:49.463Z,99755
2018-06-12T03:21:18.302Z,99750
2018-06-12T03:23:47.134Z,99755
2018-06-12T03:26:15.975Z,99756
2018-06-12T03:28:44.824Z,99754
2018-06-12T03:31:13.670Z,99762
2018-06-12T03:33:42.517Z,99763
2018-06-12T03:36:11.357Z,99767
2018-06-12T03:38:40.200Z,99770
2018-06-12T03:41:09.032Z,99766
2018-06-12T03:43:38.612Z,99771
2018-06-12T03:46:07.460Z,99767
2018-06-12T03:48:36.311Z,99762
2018-06-12T03:51:05.160Z,99767
2018-06-12T03:53:33.990Z,99763
2018-06-12T03:56:03.581Z,99764
2018-06-12T03:58:32.405Z,99761
2018-06-12T04:01:01.245Z,99768
2018-06-12T04:03:30.092Z,99761
2018-06-12T04:05:58.934Z,99763
2018-06-12T04:08:27.772Z,99761
2018-06-12T04:10:56.614Z,99763
2018-06-12T04:13:25.464Z,99763
2018-06-12T04:15:54.299Z,99759
2018-06-12T04:18:23.152Z,99760
2018-06-12T04:20:51.992Z,99764
2018-06-12T04:23:21.569Z,99759
2018-06-12T04:25:50.433Z,99764
2018-06-12T04:28:19.246Z,99760
2018-06-12T04:30:48.087Z,99760
2018-06-12T04:33:16.929Z,99760
2018-06-12T04:35:46.520Z,99759
2018-06-12T04:38:15.346Z,99763
2018-06-12T04:40:44.937Z,99764
2018-06-12T04:43:13.784Z,99761
2018-06-12T04:45:42.616Z,99765
2018-06-12T04:48:11.458Z,99758
2018-06-12T04:50:40.291Z,99768
2018-06-12T04:53:09.132Z,99777
2018-06-12T04:55:37.996Z,99770
2018-06-12T04:58:06.837Z,99779
2018-06-12T05:00:35.663Z,99775
2018-06-12T05:03:04.524Z,99779
2018-06-12T05:05:33.372Z,99777
2018-06-12T05:08:02.223Z,99785
2018-06-12T05:10:31.128Z,99783
2018-06-12T05:12:59.916Z,99787
2018-06-12T05:15:28.754Z,99789
2018-06-12T05:17:57.595Z,99797
2018-06-12T05:20:27.179Z,99789
2018-06-12T05:22:56.033Z,99789
2018-06-12T05:25:24.872Z,99784
2018-06-12T05:27:53.728Z,99787
2018-06-12T05:30:22.568Z,99788
2018-06-12T05:32:51.425Z,99787
2018-06-12T05:35:20.266Z,99790
2018-06-12T05:37:49.107Z,99786
2018-06-12T05:40:17.940Z,99780
2018-06-12T05:42:46.783Z,99780
2018-06-12T05:45:15.616Z,99785
2018-06-12T05:47:44.462Z,99782
2018-06-12T05:50:13.303Z,99787
2018-06-12T05:52:42.145Z,99795
2018-06-12T05:55:10.974Z,99790
2018-06-12T05:57:39.831Z,99788
2018-06-12T06:00:09.407Z,99792
2018-06-12T06:02:38.242Z,99791
2018-06-12T06:05:07.094Z,99788
2018-06-12T06:07:36.534Z,99802
2018-06-12T06:10:05.369Z,99805
2018-06-12T06:12:34.221Z,99807
2018-06-12T06:15:03.070Z,99810
2018-06-12T06:17:31.908Z,99812
2018-06-12T06:20:00.756Z,99811
2018-06-12T06:22:29.621Z,99818
2018-06-12T06:24:58.458Z,99812
2018-06-12T06:27:27.299Z,99817
2018-06-12T06:29:56.136Z,99824
2018-06-12T06:32:25.879Z,99831
2018-06-12T06:34:54.586Z,99831
2018-06-12T06:37:23.423Z,99825
2018-06-12T06:39:52.308Z,99828
2018-06-12T06:42:21.128Z,99825
2018-06-12T06:44:49.959Z,99830
2018-06-12T06:47:18.809Z,99823
2018-06-12T06:49:47.654Z,99820
2018-06-12T06:52:17.241Z,99819
2018-06-12T06:54:46.096Z,99826
2018-06-12T06:57:14.920Z,99824
2018-06-12T06:59:43.906Z,99825
2018-06-12T07:02:12.752Z,99825
2018-06-12T07:04:41.602Z,99832
2018-06-12T07:07:10.440Z,99826
2018-06-12T07:09:39.291Z,99832
2018-06-12T07:12:08.884Z,99826
2018-06-12T07:14:37.733Z,99829
2018-06-12T07:17:06.568Z,99828
2018-06-12T07:19:36.153Z,99827
2018-06-12T07:22:04.993Z,99827
2018-06-12T07:24:33.842Z,99825
2018-06-12T07:27:02.731Z,99821
2018-06-12T07:29:31.532Z,99823
2018-06-12T07:32:00.383Z,99825
2018-06-12T07:36:18.403Z,99824
2018-06-12T07:38:47.250Z,99826
2018-06-12T07:41:16.092Z,99833
2018-06-12T07:43:44.925Z,99830
2018-06-12T07:46:13.766Z,99833
2018-06-12T07:48:42.607Z,99846
2018-06-12T07:51:11.450Z,99847
2018-06-12T07:53:40.291Z,99849
2018-06-12T07:56:09.883Z,99846
2018-06-12T07:58:38.750Z,99843
2018-06-12T08:01:07.588Z,99841
2018-06-12T08:03:36.433Z,99833
2018-06-12T08:06:05.295Z,99827
2018-06-12T08:08:34.142Z,99838
2018-06-12T08:11:02.975Z,99825
2018-06-12T08:13:31.824Z,99832
2018-06-12T08:16:00.684Z,99829
2018-06-12T08:18:29.562Z,99831
2018-06-12T08:20:58.371Z,99845
2018-06-12T08:23:27.796Z,99839
2018-06-12T08:25:57.412Z,99849
2018-06-12T08:28:26.243Z,99842
2018-06-12T08:30:55.103Z,99844
2018-06-12T08:33:23.950Z,99844
2018-06-12T08:35:53.533Z,99845
2018-06-12T08:38:22.367Z,99843
2018-06-12T08:40:52.037Z,99849
2018-06-12T08:43:21.578Z,99855
2018-06-12T08:45:51.160Z,99850
2018-06-12T08:48:20.003Z,99850
2018-06-12T08:50:48.861Z,99852
2018-06-12T08:53:17.741Z,99855
2018-06-12T08:55:46.586Z,99854
2018-06-12T08:58:15.435Z,99855
2018-06-12T09:00:44.268Z,99865
2018-06-12T09:03:13.111Z,99858
2018-06-12T09:05:42.690Z,99866
2018-06-12T09:08:11.535Z,99861
2018-06-12T09:10:40.382Z,99861
2018-06-12T09:13:09.237Z,99868
2018-06-12T09:15:38.093Z,99868
2018-06-12T09:18:06.941Z,99849
2018-06-12T09:20:35.782Z,99822
2018-06-12T09:23:04.878Z,99838
2018-06-12T09:25:34.228Z,99848
2018-06-12T09:28:03.073Z,99848
2018-06-12T09:30:31.912Z,99855
2018-06-12T09:33:00.755Z,99853
2018-06-12T09:35:29.595Z,99871
2018-06-12T09:37:58.440Z,99875
2018-06-12T09:40:27.300Z,99875
2018-06-12T09:42:56.174Z,99883
2018-06-12T09:45:25.758Z,99876
2018-06-12T09:47:55.705Z,99878
2018-06-12T09:50:25.274Z,99872
2018-06-12T09:52:54.107Z,99870
2018-06-12T09:55:22.953Z,99861
2018-06-12T09:57:51.787Z,99867
2018-06-12T10:00:20.648Z,99877
2018-06-12T10:02:49.501Z,99885
2018-06-12T10:05:18.339Z,99882
2018-06-12T10:07:48.911Z,99885
2018-06-12T10:10:17.710Z,99887
2018-06-12T10:12:46.542Z,99883
2018-06-12T10:15:16.133Z,99882
2018-06-12T10:17:44.964Z,99888
2018-06-12T10:20:13.799Z,99887
2018-06-12T10:22:42.635Z,99887
2018-06-12T10:25:11.474Z,99876
2018-06-12T10:27:40.310Z,99881
2018-06-12T10:30:09.159Z,99864
2018-06-12T10:32:38.000Z,99862
2018-06-12T10:35:06.838Z,99871
2018-06-12T10:37:35.686Z,99878
2018-06-12T10:40:04.546Z,99867
2018-06-12T10:42:34.143Z,99869
2018-06-12T10:45:03.737Z,99864
2018-06-12T10:47:33.260Z,99864
2018-06-12T10:50:02.869Z,99866
2018-06-12T10:52:31.691Z,99885
2018-06-12T10:55:00.519Z,99863
2018-06-12T10:57:29.350Z,99866
2018-06-12T10:59:58.213Z,99870
2018-06-12T11:02:27.050Z,99868
2018-06-12T11:04:55.896Z,99860
2018-06-12T11:07:25.501Z,99861
2018-06-12T11:09:55.071Z,99862
2018-06-12T11:12:23.909Z,99861
2018-06-12T11:14:52.756Z,99861
2018-06-12T11:17:21.605Z,99857
2018-06-12T11:19:50.451Z,99861
2018-06-12T11:22:19.313Z,99858
2018-06-12T11:24:48.145Z,99862
2018-06-12T11:27:17.776Z,99856
2018-06-12T11:29:47.166Z,99856
2018-06-12T11:32:16.017Z,99851
2018-06-12T11:34:44.853Z,99864
2018-06-12T11:37:13.709Z,99857
2018-06-12T11:39:42.569Z,99848
2018-06-12T11:42:11.421Z,99848
2018-06-12T11:44:40.263Z,99842
2018-06-12T11:47:09.131Z,99842
2018-06-12T11:49:37.977Z,99842
2018-06-12T11:52:07.564Z,99839
2018-06-12T11:54:36.412Z,99844
2018-06-12T11:57:05.256Z,99850
2018-06-12T11:59:34.833Z,99843
2018-06-12T12:02:03.676Z,99848
2018-06-12T12:04:32.523Z,99844
2018-06-12T12:07:01.385Z,99843
2018-06-12T12:09:30.247Z,99840
2018-06-12T12:11:59.095Z,99837
2018-06-12T12:14:28.671Z,99835
2018-06-12T12:16:57.564Z,99833
2018-06-12T12:19:26.361Z,99838
2018-06-12T12:21:55.210Z,99827
2018-06-12T12:24:24.063Z,99830
2018-06-12T12:26:53.652Z,99824
2018-06-12T12:29:22.509Z,99822
2018-06-12T12:31:51.372Z,99805
2018-06-12T12:34:20.198Z,99811
2018-06-12T12:36:49.037Z,99820
2018-06-12T12:39:18.621Z,99808
2018-06-12T12:41:47.472Z,99812
2018-06-12T12:44:16.326Z,99805
2018-06-12T12:46:45.172Z,99800
2018-06-12T12:49:14.016Z,99804
2018-06-12T12:51:42.863Z,99799
2018-06-12T12:54:11.711Z,99818
2018-06-12T12:56:40.551Z,99801
2018-06-12T12:59:10.144Z,99801
2018-06-12T13:01:38.995Z,99800
2018-06-12T13:04:07.856Z,99793
2018-06-12T13:06:36.706Z,99799
2018-06-12T13:09:05.549Z,99808
2018-06-12T13:11:34.512Z,99810
2018-06-12T13:14:04.095Z,99812
2018-06-12T13:16:32.939Z,99817
2018-06-12T13:19:01.780Z,99812
2018-06-12T13:21:30.622Z,99822
2018-06-12T13:23:59.469Z,99810
2018-06-12T13:26:29.048Z,99808
2018-06-12T13:28:57.908Z,99805
2018-06-12T13:31:27.698Z,99812
2018-06-12T13:33:57.314Z,99818
2018-06-12T13:36:26.127Z,99825
2018-06-12T13:38:54.976Z,99826
2018-06-12T13:41:23.838Z,99831
2018-06-12T13:43:52.682Z,99828
2018-06-12T13:46:21.539Z,99832
2018-06-12T13:48:50.373Z,99824
2018-06-12T13:51:19.216Z,99830
2018-06-12T13:53:48.799Z,99828
2018-06-12T13:56:17.646Z,99827
2018-06-12T13:58:46.491Z,99825
2018-06-12T14:01:15.340Z,99825
2018-06-12T14:03:44.183Z,99826
2018-06-12T14:06:13.766Z,99826
2018-06-12T14:08:42.602Z,99831
2018-06-12T14:11:11.484Z,99831
2018-06-12T14:13:40.326Z,99830
2018-06-12T14:16:09.163Z,99835
2018-06-12T14:18:38.532Z,99833
2018-06-12T14:21:07.400Z,99828
2018-06-12T14:23:36.244Z,99824
2018-06-12T14:26:05.098Z,99834
2018-06-12T14:28:33.946Z,99833
2018-06-12T14:31:06.794Z,99829
2018-06-12T14:33:35.287Z,99837
2018-06-12T14:36:04.139Z,99834
2018-06-12T14:38:32.987Z,99846
2018-06-12T14:41:02.021Z,99839
2018-06-12T14:43:32.564Z,99842
2018-06-12T14:46:00.322Z,99841
2018-06-12T14:48:29.179Z,99835
2018-06-12T14:50:59.186Z,99834
2018-06-12T14:53:28.028Z,99833
2018-06-12T14:55:57.629Z,99829
2018-06-12T14:58:27.211Z,99829
2018-06-12T15:00:56.051Z,99817
2018-06-12T15:03:24.904Z,99824
2018-06-12T15:05:53.775Z,99827
2018-06-12T15:08:23.234Z,99820
2018-06-12T15:10:52.085Z,99811
2018-06-12T15:13:20.929Z,99818
2018-06-12T15:15:50.510Z,99812
2018-06-12T15:18:19.347Z,99808
2018-06-12T15:20:48.219Z,99803
2018-06-12T15:23:17.053Z,99797
2018-06-12T15:25:46.634Z,99805
2018-06-12T15:28:15.482Z,99801
2018-06-12T15:30:44.321Z,99789
2018-06-12T15:33:13.166Z,99791
2018-06-12T15:35:42.023Z,99788
2018-06-12T15:38:11.612Z,99787
2018-06-12T15:40:40.464Z,99786
2018-06-12T15:43:09.324Z,99785
2018-06-12T15:45:38.207Z,99786
2018-06-12T15:48:07.779Z,99785
2018-06-12T15:50:36.678Z,99798
2018-06-12T15:53:05.489Z,99805
2018-06-12T15:55:34.344Z,99810
2018-06-12T15:58:03.194Z,99811
2018-06-12T16:00:32.041Z,99813
2018-06-12T16:03:00.891Z,99802
2018-06-12T16:05:29.740Z,99800
2018-06-12T16:07:58.587Z,99797
2018-06-12T16:10:27.422Z,99796
2018-06-12T16:12:56.270Z,99799
2018-06-12T16:15:25.103Z,99801
2018-06-12T16:17:53.959Z,99812
2018-06-12T16:20:22.795Z,99818
2018-06-12T16:22:51.644Z,99818
2018-06-12T16:25:20.494Z,99818
2018-06-12T16:27:49.345Z,99827
2018-06-12T16:30:18.202Z,99811
2018-06-12T16:32:47.043Z,99811
2018-06-12T16:35:15.892Z,99813
2018-06-12T16:37:44.753Z,99817
2018-06-12T16:40:13.591Z,99822
2018-06-12T16:42:42.445Z,99828
2018-06-12T16:45:11.290Z,99823
2018-06-12T16:47:40.132Z,99826
2018-06-12T16:50:08.967Z,99818
2018-06-12T16:52:37.817Z,99826
2018-06-12T16:55:06.687Z,99829
2018-06-12T16:57:35.534Z,99826
2018-06-12T17:00:04.790Z,99826
2018-06-12T17:02:33.705Z,99825
2018-06-12T17:05:02.516Z,99832
2018-06-12T17:07:31.362Z,99821
2018-06-12T17:10:00.938Z,99836
2018-06-12T17:12:29.800Z,99835
2018-06-12T17:14:58.630Z,99833
2018-06-12T17:17:27.471Z,99845
2018-06-12T17:19:56.329Z,99841
2018-06-12T17:22:25.902Z,99853
2018-06-12T17:24:54.752Z,99850
2018-06-12T17:27:23.591Z,99850
2018-06-12T17:29:53.066Z,99856
2018-06-12T17:32:21.959Z,99851
2018-06-12T17:34:50.793Z,99856
2018-06-12T17:37:20.380Z,99851
2018-06-12T17:39:49.223Z,99861
2018-06-12T17:42:18.054Z,99841
2018-06-12T17:44:46.912Z,99849
2018-06-12T17:47:15.763Z,99852
2018-06-12T17:49:44.616Z,99858
2018-06-12T17:52:13.438Z,99857
2018-06-12T17:54:42.358Z,99857
2018-06-12T17:57:11.167Z,99856
2018-06-12T17:59:40.004Z,99857
2018-06-12T18:02:09.610Z,99862
2018-06-12T18:04:39.197Z,99860
2018-06-12T18:07:08.054Z,99866
2018-06-12T18:09:36.895Z,99862
2018-06-12T18:12:05.738Z,99866
2018-06-12T18:14:34.580Z,99865
2018-06-12T18:17:03.445Z,99866
2018-06-12T18:19:32.261Z,99864
2018-06-12T18:22:01.090Z,99874
2018-06-12T18:24:29.916Z,99871
2018-06-12T18:26:58.775Z,99870
2018-06-12T18:29:28.162Z,99870
2018-06-12T18:31:57.002Z,99875
2018-06-12T18:34:25.832Z,99871
2018-06-12T18:36:54.677Z,99872
2018-06-12T18:39:24.179Z,99883
2018-06-12T18:41:53.608Z,99876
2018-06-12T18:44:22.978Z,99877
2018-06-12T18:46:52.551Z,99881
2018-06-12T18:49:21.489Z,99876
2018-06-12T18:51:50.325Z,99868
2018-06-12T18:54:19.262Z,99875
2018-06-12T18:56:48.121Z,99877
2018-06-12T18:59:16.959Z,99880
2018-06-12T19:01:46.555Z,99882
2018-06-12T19:04:15.372Z,99875
2018-06-12T19:06:44.288Z,99875
2018-06-12T19:09:13.054Z,99881
2018-06-12T19:11:41.895Z,99882
2018-06-12T19:14:10.736Z,99879
2018-06-12T19:16:39.572Z,99877
2018-06-12T19:19:08.419Z,99876
2018-06-12T19:21:40.185Z,99885
2018-06-12T19:24:09.028Z,99878
2018-06-12T19:26:37.906Z,99877
2018-06-12T19:29:06.718Z,99888
2018-06-12T19:31:37.223Z,99889
2018-06-12T19:34:06.070Z,99892
2018-06-12T19:36:34.912Z,99898
2018-06-12T19:39:03.739Z,99898
2018-06-12T19:41:32.578Z,99906
2018-06-12T19:44:01.428Z,99910
2018-06-12T19:46:30.263Z,99919
2018-06-12T19:48:59.113Z,99915
2018-06-12T19:51:28.156Z,99919
2018-06-12T19:53:57.752Z,99923
2018-06-12T19:56:26.566Z,99933
2018-06-12T19:58:55.454Z,99930
2018-06-12T20:01:25.031Z,99928
2018-06-12T20:03:53.880Z,99938
2018-06-12T20:06:22.734Z,99936
2018-06-12T20:08:52.310Z,99938
2018-06-12T20:11:21.133Z,99938
2018-06-12T20:13:49.995Z,99939
2018-06-12T20:16:18.948Z,99936
2018-06-12T20:18:47.708Z,99943
2018-06-12T20:21:16.555Z,99942
2018-06-12T20:23:45.397Z,99941
2018-06-12T20:26:14.254Z,99938
2018-06-12T20:28:43.098Z,99951
2018-06-12T20:31:11.973Z,99942
2018-06-12T20:33:40.822Z,99940
2018-06-12T20:36:09.680Z,99939
2018-06-12T20:38:38.507Z,99950
2018-06-12T20:41:08.102Z,99943
2018-06-12T20:43:37.690Z,99943
2018-06-12T20:46:06.532Z,99952
2018-06-12T20:48:35.363Z,99948
2018-06-12T20:51:04.202Z,99950
2018-06-12T20:53:33.051Z,99943
2018-06-12T20:56:01.891Z,99945
2018-06-12T20:58:30.773Z,99956
2018-06-12T21:00:59.622Z,99953
2018-06-12T21:03:28.483Z,99954
2018-06-12T21:05:57.327Z,99956
2018-06-12T21:08:26.170Z,99948
2018-06-12T21:10:55.003Z,99944
2018-06-12T21:13:25.570Z,99949
2018-06-12T21:15:54.418Z,99952
2018-06-12T21:18:24.017Z,99963
2018-06-12T21:20:52.833Z,99965
2018-06-12T21:23:21.669Z,99974
2018-06-12T21:25:50.506Z,99980
2018-06-12T21:28:19.353Z,99974
2018-06-12T21:30:48.196Z,99971
2018-06-12T21:33:17.033Z,99973
2018-06-12T21:35:46.638Z,99976
2018-06-12T21:38:15.469Z,99979
2018-06-12T21:40:44.316Z,99971
2018-06-12T21:43:13.225Z,99966
2018-06-12T21:45:42.821Z,99974
2018-06-12T21:48:11.669Z,99976
2018-06-12T21:50:40.558Z,99967
2018-06-12T21:53:09.345Z,99968
2018-06-12T21:55:38.176Z,99975
2018-06-12T21:58:07.009Z,99971
2018-06-12T22:00:35.854Z,99979
2018-06-12T22:03:04.705Z,99973
2018-06-12T22:05:33.534Z,99975
2018-06-12T22:08:03.349Z,99973
2018-06-12T22:10:32.179Z,99977
2018-06-12T22:13:01.029Z,99983
2018-06-12T22:15:29.874Z,99981
2018-06-12T22:17:58.695Z,99978
2018-06-12T22:20:27.523Z,99976
2018-06-12T22:22:56.358Z,99978
2018-06-12T22:25:25.195Z,99983
2018-06-12T22:27:54.789Z,99983
2018-06-12T22:30:24.423Z,99981
2018-06-12T22:32:53.199Z,100008
2018-06-12T22:35:22.078Z,99983
2018-06-12T22:37:50.937Z,99986
2018-06-12T22:40:19.750Z,99988
2018-06-12T22:42:49.335Z,99987
2018-06-12T22:45:18.174Z,100017
2018-06-12T22:47:47.006Z,99994
2018-06-12T22:50:15.845Z,99992
2018-06-12T22:52:44.679Z,99989
2018-06-12T22:55:13.517Z,99994
2018-06-12T22:57:42.409Z,99993
2018-06-12T23:00:11.193Z,99997
2018-06-12T23:02:40.039Z,99997
2018-06-12T23:05:08.875Z,99998
2018-06-12T23:07:37.712Z,99994
2018-06-12T23:10:06.573Z,100001
2018-06-12T23:12:35.420Z,99997
2018-06-12T23:15:04.487Z,100004
2018-06-12T23:17:33.333Z,100002
2018-06-12T23:20:20.012Z,100002
2018-06-12T23:22:49.717Z,100015
2018-06-12T23:25:18.441Z,100006
2018-06-12T23:27:47.277Z,99998
2018-06-12T23:30:16.834Z,100006
2018-06-12T23:32:45.682Z,100010
2018-06-12T23:35:15.112Z,100011
2018-06-12T23:37:43.975Z,100014
2018-06-12T23:40:12.839Z,100018
2018-06-12T23:42:41.678Z,100015
2018-06-12T23:45:11.905Z,100015
2018-06-12T23:47:40.747Z,100008
2018-06-12T23:50:09.590Z,100011
2018-06-12T23:52:38.435Z,100003
2018-06-12T23:55:07.273Z,100007
2018-06-12T23:57:36.111Z,100007
